createdAt,value
2018-09-13T00:00:42.951Z,8.95
2018-09-13T00:03:11.667Z,8.94
2018-09-13T00:05:40.615Z,8.92
2018-09-13T00:08:09.280Z,8.90
2018-09-13T00:10:38.013Z,8.90
2018-09-13T00:13:06.649Z,8.89
2018-09-13T00:15:35.381Z,8.87
2018-09-13T00:18:04.059Z,8.86
2018-09-13T00:20:32.878Z,8.88
2018-09-13T00:23:01.835Z,8.87
2018-09-13T00:25:30.818Z,8.82
2018-09-13T00:27:59.506Z,8.77
2018-09-13T00:30:28.266Z,8.77
2018-09-13T00:32:56.932Z,8.74
2018-09-13T00:35:25.704Z,8.72
2018-09-13T00:37:54.439Z,8.73
2018-09-13T00:40:23.405Z,8.74
2018-09-13T00:42:52.410Z,8.72
2018-09-13T00:45:21.133Z,8.70
2018-09-13T00:47:49.894Z,8.69
2018-09-13T00:50:18.708Z,8.70
2018-09-13T00:52:47.434Z,8.73
2018-09-13T00:55:16.250Z,8.74
2018-09-13T00:57:45.197Z,8.73
2018-09-13T01:00:13.890Z,8.74
2018-09-13T01:02:42.687Z,8.74
2018-09-13T01:05:11.518Z,8.77
2018-09-13T01:07:40.526Z,8.80
2018-09-13T01:10:09.196Z,8.84
2018-09-13T01:12:37.855Z,8.88
2018-09-13T01:15:06.912Z,8.90
2018-09-13T01:17:35.649Z,8.95
2018-09-13T01:20:04.446Z,8.94
2018-09-13T01:22:33.202Z,8.95
2018-09-13T01:25:01.799Z,8.98
2018-09-13T01:27:30.591Z,9.03
2018-09-13T01:29:59.234Z,9.03
2018-09-13T01:32:27.856Z,9.05
2018-09-13T01:34:56.572Z,9.07
2018-09-13T01:37:25.470Z,9.09
2018-09-13T01:39:54.463Z,9.14
2018-09-13T01:42:23.576Z,9.17
2018-09-13T01:44:52.387Z,9.20
2018-09-13T01:47:21.324Z,9.19
2018-09-13T01:49:49.931Z,9.21
2018-09-13T01:52:18.741Z,9.24
2018-09-13T01:54:47.406Z,9.24
2018-09-13T01:57:16.131Z,9.28
2018-09-13T01:59:45.240Z,9.30
2018-09-13T02:02:14.013Z,9.36
2018-09-13T02:04:42.743Z,9.38
2018-09-13T02:07:11.484Z,9.42
2018-09-13T02:09:40.179Z,9.42
2018-09-13T02:12:08.959Z,9.45
2018-09-13T02:14:37.789Z,9.45
2018-09-13T02:17:06.659Z,9.50
2018-09-13T02:19:35.340Z,9.52
2018-09-13T02:22:04.258Z,9.54
2018-09-13T02:24:33.000Z,9.56
2018-09-13T02:27:01.687Z,9.58
2018-09-13T02:29:30.415Z,9.59
2018-09-13T02:31:59.266Z,9.62
2018-09-13T02:34:28.045Z,9.62
2018-09-13T02:36:56.665Z,9.65
2018-09-13T02:39:25.399Z,9.67
2018-09-13T02:41:54.112Z,9.71
2018-09-13T02:44:23.054Z,9.71
2018-09-13T02:46:51.919Z,9.72
2018-09-13T02:49:21.021Z,9.60
2018-09-13T02:51:49.583Z,9.78
2018-09-13T02:54:18.404Z,9.79
2018-09-13T02:56:47.358Z,9.79
2018-09-13T02:59:16.353Z,9.79
2018-09-13T03:01:45.025Z,9.80
2018-09-13T03:04:13.730Z,9.81
2018-09-13T03:06:42.639Z,9.83
2018-09-13T03:09:13.178Z,9.84
2018-09-13T03:11:43.273Z,9.88
2018-09-13T03:14:12.089Z,9.89
2018-09-13T03:16:41.166Z,9.92
2018-09-13T03:19:10.095Z,9.94
2018-09-13T03:21:38.712Z,9.92
2018-09-13T03:24:07.625Z,9.94
2018-09-13T03:26:36.373Z,9.94
2018-09-13T03:29:05.414Z,9.92
2018-09-13T03:31:34.406Z,9.93
2018-09-13T03:34:03.614Z,9.93
2018-09-13T03:36:32.486Z,9.92
2018-09-13T03:39:01.172Z,9.92
2018-09-13T03:41:30.127Z,9.94
2018-09-13T03:43:58.910Z,9.97
2018-09-13T03:46:27.743Z,9.96
2018-09-13T03:48:56.526Z,9.96
2018-09-13T03:51:25.236Z,9.98
2018-09-13T03:53:54.029Z,9.98
2018-09-13T03:56:22.914Z,9.96
2018-09-13T03:58:51.836Z,9.97
2018-09-13T04:01:20.820Z,10.00
2018-09-13T04:03:49.724Z,10.02
2018-09-13T04:06:18.449Z,10.01
2018-09-13T04:08:47.388Z,10.03
2018-09-13T04:11:16.202Z,10.04
2018-09-13T04:13:45.226Z,10.04
2018-09-13T04:16:14.024Z,10.06
2018-09-13T04:18:43.304Z,10.07
2018-09-13T04:21:11.867Z,9.92
2018-09-13T04:23:40.777Z,10.07
2018-09-13T04:26:09.420Z,10.09
2018-09-13T04:28:38.363Z,10.11
2018-09-13T04:31:07.105Z,10.13
2018-09-13T04:33:36.051Z,10.16
2018-09-13T04:36:04.803Z,10.15
2018-09-13T04:38:33.484Z,10.19
2018-09-13T04:41:02.161Z,10.22
2018-09-13T04:43:31.115Z,10.23
2018-09-13T04:46:00.013Z,10.26
2018-09-13T04:48:29.050Z,10.29
2018-09-13T04:50:57.938Z,10.32
2018-09-13T04:53:26.907Z,10.32
2018-09-13T04:55:55.762Z,10.32
2018-09-13T04:58:24.726Z,10.33
2018-09-13T05:00:54.292Z,10.19
2018-09-13T05:03:23.271Z,10.36
2018-09-13T05:05:52.578Z,10.37
2018-09-13T05:08:21.426Z,10.38
2018-09-13T05:10:50.878Z,10.42
2018-09-13T05:13:20.300Z,10.43
2018-09-13T05:15:49.647Z,10.45
2018-09-13T05:18:18.775Z,10.43
2018-09-13T05:20:48.092Z,10.52
2018-09-13T05:23:17.395Z,10.54
2018-09-13T05:25:47.212Z,10.56
2018-09-13T05:28:16.578Z,10.57
2018-09-13T05:30:46.371Z,10.60
2018-09-13T05:33:15.781Z,10.59
2018-09-13T05:35:45.076Z,10.56
2018-09-13T05:38:14.621Z,10.52
2018-09-13T05:40:44.079Z,10.52
2018-09-13T05:43:13.484Z,10.49
2018-09-13T05:45:43.164Z,10.46
2018-09-13T05:48:12.456Z,10.49
2018-09-13T05:50:41.628Z,10.62
2018-09-13T05:53:11.981Z,10.79
2018-09-13T05:55:41.368Z,11.25
2018-09-13T05:58:10.963Z,11.18
2018-09-13T06:00:40.474Z,10.99
2018-09-13T06:03:09.856Z,10.87
2018-09-13T06:05:39.035Z,10.93
2018-09-13T06:08:08.602Z,10.87
2018-09-13T06:10:38.314Z,10.93
2018-09-13T06:13:07.637Z,10.95
2018-09-13T06:15:37.016Z,10.99
2018-09-13T06:18:06.233Z,11.08
2018-09-13T06:20:35.576Z,11.36
2018-09-13T06:23:05.060Z,11.78
2018-09-13T06:25:34.577Z,12.30
2018-09-13T06:28:03.867Z,12.73
2018-09-13T06:30:33.287Z,13.26
2018-09-13T06:33:02.619Z,13.70
2018-09-13T06:35:31.820Z,14.22
2018-09-13T06:38:01.127Z,14.50
2018-09-13T06:40:30.416Z,14.69
2018-09-13T06:42:59.679Z,14.77
2018-09-13T06:45:29.059Z,14.88
2018-09-13T06:47:58.312Z,15.01
2018-09-13T06:50:27.497Z,15.07
2018-09-13T06:52:56.759Z,15.20
2018-09-13T06:55:26.032Z,15.35
2018-09-13T06:57:55.465Z,15.48
2018-09-13T07:00:24.770Z,15.72
2018-09-13T07:02:54.068Z,15.88
2018-09-13T07:05:23.374Z,16.06
2018-09-13T07:07:52.546Z,16.19
2018-09-13T07:10:21.645Z,16.40
2018-09-13T07:12:50.941Z,16.15
2018-09-13T07:15:20.109Z,16.06
2018-09-13T07:17:49.344Z,16.39
2018-09-13T07:20:18.653Z,16.34
2018-09-13T07:22:47.950Z,16.39
2018-09-13T07:25:17.263Z,16.58
2018-09-13T07:27:46.646Z,16.45
2018-09-13T07:30:16.118Z,16.56
2018-09-13T07:32:45.441Z,16.72
2018-09-13T07:35:17.900Z,16.78
2018-09-13T07:37:47.270Z,17.01
2018-09-13T07:40:16.727Z,17.29
2018-09-13T07:42:46.465Z,17.51
2018-09-13T07:45:15.804Z,17.56
2018-09-13T07:47:45.180Z,17.41
2018-09-13T07:50:14.569Z,17.41
2018-09-13T07:52:44.043Z,17.23
2018-09-13T07:55:13.290Z,17.61
2018-09-13T07:57:42.478Z,17.86
2018-09-13T08:00:11.777Z,17.87
2018-09-13T08:02:41.559Z,18.23
2018-09-13T08:05:11.023Z,18.28
2018-09-13T08:07:40.459Z,18.04
2018-09-13T08:10:09.782Z,17.99
2018-09-13T08:12:39.242Z,18.05
2018-09-13T08:15:08.611Z,18.56
2018-09-13T08:17:37.899Z,18.54
2018-09-13T08:20:07.079Z,18.44
2018-09-13T08:22:36.313Z,18.81
2018-09-13T08:25:05.716Z,18.73
2018-09-13T08:27:35.476Z,18.69
2018-09-13T08:30:04.966Z,18.99
2018-09-13T08:32:34.268Z,19.27
2018-09-13T08:35:03.768Z,19.90
2018-09-13T08:37:33.154Z,20.33
2018-09-13T08:40:04.018Z,20.30
2018-09-13T08:42:33.307Z,20.17
2018-09-13T08:45:02.822Z,20.13
2018-09-13T08:47:32.406Z,20.03
2018-09-13T08:50:01.840Z,20.01
2018-09-13T08:52:31.173Z,20.00
2018-09-13T08:55:00.607Z,19.82
2018-09-13T08:57:29.993Z,19.11
2018-09-13T08:59:59.514Z,19.53
2018-09-13T09:02:28.685Z,20.05
2018-09-13T09:04:58.151Z,20.37
2018-09-13T09:07:27.863Z,20.48
2018-09-13T09:09:57.307Z,20.69
2018-09-13T09:12:26.373Z,20.55
2018-09-13T09:14:55.566Z,20.88
2018-09-13T09:17:25.058Z,21.00
2018-09-13T09:19:54.582Z,21.19
2018-09-13T09:22:23.870Z,21.14
2018-09-13T09:24:53.523Z,21.40
2018-09-13T09:27:23.025Z,22.09
2018-09-13T09:29:52.610Z,21.92
2018-09-13T09:32:21.786Z,21.83
2018-09-13T09:34:51.596Z,22.03
2018-09-13T09:37:20.918Z,21.49
2018-09-13T09:39:50.430Z,20.97
2018-09-13T09:42:19.705Z,20.69
2018-09-13T09:44:49.145Z,20.09
2018-09-13T09:47:18.541Z,20.11
2018-09-13T09:49:47.725Z,20.59
2018-09-13T09:52:17.281Z,21.09
2018-09-13T09:54:46.844Z,20.75
2018-09-13T09:57:16.221Z,20.79
2018-09-13T09:59:45.770Z,20.77
2018-09-13T10:02:22.038Z,20.31
2018-09-13T10:04:51.564Z,19.74
2018-09-13T10:07:21.045Z,20.09
2018-09-13T10:09:50.383Z,20.66
2018-09-13T10:12:19.875Z,21.13
2018-09-13T10:14:54.079Z,21.13
2018-09-13T10:17:28.143Z,21.06
2018-09-13T10:20:02.477Z,20.56
2018-09-13T10:22:36.888Z,19.96
2018-09-13T10:25:11.158Z,20.00
2018-09-13T10:27:45.399Z,20.03
2018-09-13T10:30:19.902Z,19.44
2018-09-13T10:32:54.401Z,19.78
2018-09-13T10:35:28.601Z,19.62
2018-09-13T10:38:03.013Z,20.15
2018-09-13T10:40:37.500Z,20.43
2018-09-13T10:43:11.939Z,20.52
2018-09-13T10:45:46.301Z,20.51
2018-09-13T10:48:20.782Z,20.69
2018-09-13T10:50:55.277Z,20.23
2018-09-13T10:53:29.460Z,20.30
2018-09-13T10:55:58.882Z,20.62
2018-09-13T10:58:28.807Z,20.92
2018-09-13T11:00:58.046Z,20.78
2018-09-13T11:03:27.375Z,21.11
2018-09-13T11:05:56.683Z,21.22
2018-09-13T11:08:25.981Z,21.13
2018-09-13T11:10:55.326Z,21.09
2018-09-13T11:14:27.239Z,20.92
2018-09-13T11:16:56.503Z,21.49
2018-09-13T11:19:25.757Z,21.26
2018-09-13T11:21:54.984Z,20.66
2018-09-13T11:24:24.362Z,20.25
2018-09-13T11:26:53.851Z,20.01
2018-09-13T11:29:23.341Z,19.75
2018-09-13T11:31:52.842Z,19.35
2018-09-13T11:34:21.996Z,19.72
2018-09-13T11:36:51.651Z,19.76
2018-09-13T11:39:20.948Z,20.16
2018-09-13T11:41:50.100Z,20.27
2018-09-13T11:44:19.384Z,20.42
2018-09-13T11:46:48.794Z,20.43
2018-09-13T11:49:18.078Z,20.21
2018-09-13T11:51:47.652Z,20.17
2018-09-13T11:54:16.887Z,20.50
2018-09-13T11:56:46.338Z,20.31
2018-09-13T11:59:15.643Z,19.80
2018-09-13T12:01:45.030Z,19.45
2018-09-13T12:04:14.342Z,19.23
2018-09-13T12:10:16.325Z,19.31
2018-09-13T12:12:45.703Z,19.45
2018-09-13T12:15:15.013Z,19.40
2018-09-13T12:17:44.290Z,19.06
2018-09-13T12:20:13.866Z,19.03
2018-09-13T12:22:43.227Z,19.46
2018-09-13T12:25:12.546Z,19.64
2018-09-13T12:27:41.693Z,19.96
2018-09-13T12:30:11.280Z,19.78
2018-09-13T12:32:40.890Z,19.63
2018-09-13T12:35:10.221Z,19.51
2018-09-13T12:37:39.680Z,18.90
2018-09-13T12:40:09.532Z,18.72
2018-09-13T12:42:38.863Z,18.63
2018-09-13T12:45:09.372Z,18.70
2018-09-13T12:47:38.684Z,18.80
2018-09-13T12:50:08.634Z,19.24
2018-09-13T12:52:37.921Z,19.60
2018-09-13T12:55:07.229Z,20.24
2018-09-13T12:57:36.454Z,20.76
2018-09-13T13:00:06.092Z,20.49
2018-09-13T13:02:35.538Z,20.22
2018-09-13T13:05:04.872Z,19.85
2018-09-13T13:07:34.308Z,19.52
2018-09-13T13:10:03.917Z,19.30
2018-09-13T13:12:33.385Z,19.03
2018-09-13T13:15:02.743Z,18.90
2018-09-13T13:17:32.191Z,18.69
2018-09-13T13:20:01.684Z,18.78
2018-09-13T13:22:31.152Z,18.84
2018-09-13T13:25:00.527Z,18.83
2018-09-13T13:27:29.911Z,18.88
2018-09-13T13:29:59.104Z,18.80
2018-09-13T13:32:28.506Z,18.88
2018-09-13T13:34:57.997Z,19.22
2018-09-13T13:37:27.433Z,19.65
2018-09-13T13:39:56.955Z,19.61
2018-09-13T13:42:26.326Z,19.06
2018-09-13T13:44:56.055Z,18.88
2018-09-13T13:47:25.592Z,18.57
2018-09-13T13:49:55.367Z,18.42
2018-09-13T13:52:24.845Z,18.24
2018-09-13T13:54:54.609Z,18.10
2018-09-13T13:57:24.993Z,17.97
2018-09-13T13:59:54.558Z,17.65
2018-09-13T14:02:24.251Z,17.36
2018-09-13T14:04:53.796Z,17.47
2018-09-13T14:07:23.085Z,17.53
2018-09-13T14:09:52.820Z,17.53
2018-09-13T14:12:22.530Z,17.63
2018-09-13T14:14:51.943Z,17.86
2018-09-13T14:17:21.675Z,20.33
2018-09-13T14:19:51.241Z,21.93
2018-09-13T14:22:20.991Z,22.77
2018-09-13T14:24:50.708Z,22.64
2018-09-13T14:27:20.364Z,22.50
2018-09-13T14:29:49.923Z,23.31
2018-09-13T14:32:19.426Z,22.75
2018-09-13T14:34:49.125Z,20.53
2018-09-13T14:37:18.892Z,20.34
2018-09-13T14:39:48.466Z,20.65
2018-09-13T14:42:18.231Z,21.72
2018-09-13T14:44:48.089Z,22.49
2018-09-13T14:47:18.112Z,22.31
2018-09-13T14:49:49.642Z,20.68
2018-09-13T14:52:19.841Z,20.51
2018-09-13T14:54:50.105Z,21.22
2018-09-13T14:57:19.919Z,21.22
2018-09-13T14:59:49.597Z,21.94
2018-09-13T15:02:19.590Z,22.14
2018-09-13T15:04:49.375Z,22.08
2018-09-13T15:07:19.334Z,22.41
2018-09-13T15:09:49.029Z,22.31
2018-09-13T15:12:18.605Z,21.84
2018-09-13T15:14:48.269Z,20.94
2018-09-13T15:17:18.250Z,20.07
2018-09-13T15:19:48.422Z,19.19
2018-09-13T15:22:18.260Z,19.34
2018-09-13T15:24:48.927Z,18.66
2018-09-13T15:27:18.955Z,18.04
2018-09-13T15:29:48.721Z,17.72
2018-09-13T15:32:18.340Z,17.41
2018-09-13T15:34:48.599Z,17.22
2018-09-13T15:37:18.232Z,16.95
2018-09-13T15:39:49.019Z,16.78
2018-09-13T15:42:18.806Z,16.62
2018-09-13T15:44:48.927Z,16.75
2018-09-13T15:47:18.710Z,17.05
2018-09-13T15:49:48.555Z,16.92
2018-09-13T15:52:18.369Z,16.67
2018-09-13T15:54:48.341Z,16.51
2018-09-13T15:57:18.487Z,16.34
2018-09-13T15:59:47.979Z,16.15
2018-09-13T16:02:17.834Z,15.95
2018-09-13T16:04:47.910Z,15.84
2018-09-13T16:07:17.615Z,15.76
2018-09-13T16:09:47.314Z,15.66
2018-09-13T16:12:16.892Z,15.52
2018-09-13T16:14:46.786Z,15.38
2018-09-13T16:17:17.192Z,15.35
2018-09-13T16:19:47.151Z,15.32
2018-09-13T16:22:17.322Z,15.27
2018-09-13T16:24:47.285Z,15.19
2018-09-13T16:27:17.837Z,15.21
2018-09-13T16:29:47.664Z,15.14
2018-09-13T16:32:20.816Z,15.13
2018-09-13T16:34:51.156Z,15.10
2018-09-13T16:37:25.791Z,15.06
2018-09-13T16:40:00.984Z,15.02
2018-09-13T16:42:43.017Z,14.92
2018-09-13T16:45:12.713Z,14.86
2018-09-13T16:47:47.273Z,14.73
2018-09-13T16:50:16.947Z,14.67
2018-09-13T16:52:49.627Z,14.63
2018-09-13T16:55:18.867Z,14.56
2018-09-13T16:57:48.171Z,14.42
2018-09-13T17:00:17.829Z,14.31
2018-09-13T17:02:47.721Z,14.31
2018-09-13T17:05:17.274Z,14.27
2018-09-13T17:07:46.651Z,14.17
2018-09-13T17:10:15.992Z,14.15
2018-09-13T17:12:45.631Z,14.14
2018-09-13T17:15:15.110Z,14.11
2018-09-13T17:17:44.657Z,14.05
2018-09-13T17:20:14.216Z,13.96
2018-09-13T17:22:43.818Z,13.90
2018-09-13T17:25:13.068Z,13.88
2018-09-13T17:27:42.366Z,13.83
2018-09-13T17:30:11.321Z,13.81
2018-09-13T17:32:40.285Z,13.78
2018-09-13T17:35:09.057Z,13.73
2018-09-13T17:37:38.071Z,13.66
2018-09-13T17:40:07.118Z,13.65
2018-09-13T17:42:36.162Z,13.61
2018-09-13T17:45:05.173Z,13.53
2018-09-13T17:47:34.017Z,13.49
2018-09-13T17:50:02.840Z,13.41
2018-09-13T17:52:31.654Z,13.35
2018-09-13T17:55:00.660Z,13.25
2018-09-13T17:57:29.454Z,13.16
2018-09-13T17:59:58.057Z,13.07
2018-09-13T18:02:26.854Z,12.99
2018-09-13T18:04:55.988Z,12.92
2018-09-13T18:07:25.447Z,12.64
2018-09-13T18:09:54.237Z,12.82
2018-09-13T18:12:23.278Z,12.77
2018-09-13T18:14:52.294Z,12.72
2018-09-13T18:17:21.067Z,12.67
2018-09-13T18:19:49.848Z,12.59
2018-09-13T18:22:18.458Z,12.51
2018-09-13T18:24:47.350Z,12.15
2018-09-13T18:27:16.390Z,12.43
2018-09-13T18:29:45.489Z,12.39
2018-09-13T18:32:14.328Z,12.34
2018-09-13T18:34:43.180Z,12.27
2018-09-13T18:37:11.894Z,12.16
2018-09-13T18:39:40.491Z,12.06
2018-09-13T18:42:09.376Z,11.99
2018-09-13T18:44:38.160Z,11.95
2018-09-13T18:47:06.874Z,11.91
2018-09-13T18:49:35.660Z,11.85
2018-09-13T18:52:04.588Z,11.82
2018-09-13T18:54:33.552Z,11.79
2018-09-13T18:57:02.304Z,11.73
2018-09-13T18:59:31.210Z,11.68
2018-09-13T19:01:59.906Z,11.62
2018-09-13T19:04:28.689Z,11.57
2018-09-13T19:06:57.664Z,10.84
2018-09-13T19:09:26.701Z,11.50
2018-09-13T19:11:55.471Z,11.45
2018-09-13T19:14:24.284Z,11.26
2018-09-13T19:16:53.074Z,11.36
2018-09-13T19:19:22.060Z,11.32
2018-09-13T19:21:50.975Z,11.29
2018-09-13T19:24:20.039Z,11.24
2018-09-13T19:26:49.035Z,11.18
2018-09-13T19:29:17.914Z,11.14
2018-09-13T19:31:46.927Z,11.07
2018-09-13T19:34:15.801Z,11.01
2018-09-13T19:36:44.494Z,10.96
2018-09-13T19:39:14.001Z,10.84
2018-09-13T19:41:43.447Z,10.82
2018-09-13T19:44:12.343Z,10.81
2018-09-13T19:46:41.242Z,10.76
2018-09-13T19:49:09.875Z,10.75
2018-09-13T19:51:38.841Z,10.71
2018-09-13T19:54:07.607Z,10.63
2018-09-13T19:56:36.323Z,10.57
2018-09-13T19:59:05.068Z,10.53
2018-09-13T20:01:34.079Z,10.50
2018-09-13T20:04:02.828Z,10.46
2018-09-13T20:06:31.910Z,10.40
2018-09-13T20:09:00.713Z,10.35
2018-09-13T20:11:29.489Z,10.33
2018-09-13T20:13:58.667Z,10.30
2018-09-13T20:16:28.062Z,10.23
2018-09-13T20:18:56.884Z,10.14
2018-09-13T20:21:25.882Z,10.07
2018-09-13T20:23:55.081Z,9.90
2018-09-13T20:26:23.973Z,9.91
2018-09-13T20:28:52.997Z,9.90
2018-09-13T20:31:21.677Z,9.88
2018-09-13T20:33:50.521Z,9.85
2018-09-13T20:36:19.157Z,9.78
2018-09-13T20:38:48.039Z,9.70
2018-09-13T20:41:16.743Z,9.69
2018-09-13T20:43:45.582Z,9.65
2018-09-13T20:46:14.282Z,9.65
2018-09-13T20:48:43.124Z,9.64
2018-09-13T20:51:12.012Z,9.62
2018-09-13T20:53:40.788Z,9.58
2018-09-13T20:56:09.402Z,9.53
2018-09-13T20:58:38.388Z,9.53
2018-09-13T21:01:07.493Z,9.50
2018-09-13T21:03:36.217Z,9.49
2018-09-13T21:06:05.019Z,9.46
2018-09-13T21:08:33.981Z,9.38
2018-09-13T21:11:02.905Z,9.36
2018-09-13T21:13:32.211Z,9.29
2018-09-13T21:16:01.011Z,9.26
2018-09-13T21:18:29.807Z,9.20
2018-09-13T21:20:58.567Z,9.19
2018-09-13T21:23:27.538Z,9.17
2018-09-13T21:25:56.828Z,9.16
2018-09-13T21:28:25.579Z,9.14
2018-09-13T21:30:54.702Z,9.11
2018-09-13T21:33:23.429Z,9.07
2018-09-13T21:35:52.260Z,9.01
2018-09-13T21:38:21.124Z,8.96
2018-09-13T21:40:49.934Z,8.92
2018-09-13T21:43:18.755Z,8.88
2018-09-13T21:45:47.542Z,8.84
2018-09-13T21:48:16.275Z,8.83
2018-09-13T21:50:45.331Z,8.76
2018-09-13T21:53:14.101Z,8.72
2018-09-13T21:55:43.681Z,8.62
2018-09-13T21:58:12.475Z,8.63
2018-09-13T22:00:41.244Z,8.57
2018-09-13T22:03:10.063Z,8.50
2018-09-13T22:05:38.961Z,8.49
2018-09-13T22:08:07.624Z,8.42
2018-09-13T22:10:36.692Z,8.41
2018-09-13T22:13:05.325Z,8.38
2018-09-13T22:15:34.077Z,8.38
2018-09-13T22:18:02.850Z,8.35
2018-09-13T22:20:31.944Z,8.37
2018-09-13T22:23:00.725Z,8.37
2018-09-13T22:25:29.766Z,8.36
2018-09-13T22:27:58.427Z,8.35
2018-09-13T22:30:27.219Z,8.31
2018-09-13T22:32:56.154Z,8.31
2018-09-13T22:35:25.400Z,8.30
2018-09-13T22:37:54.244Z,8.27
2018-09-13T22:40:23.859Z,8.25
2018-09-13T22:42:52.649Z,7.85
2018-09-13T22:45:21.790Z,8.15
2018-09-13T22:47:50.664Z,8.09
2018-09-13T22:50:19.504Z,8.05
2018-09-13T22:52:48.209Z,8.01
2018-09-13T22:55:17.262Z,7.96
2018-09-13T22:57:46.118Z,7.95
2018-09-13T23:00:15.326Z,7.95
2018-09-13T23:02:48.416Z,7.95
2018-09-13T23:05:18.366Z,7.96
2018-09-13T23:07:47.581Z,7.98
2018-09-13T23:10:17.221Z,7.99
2018-09-13T23:12:46.262Z,7.99
2018-09-13T23:15:15.112Z,8.00
2018-09-13T23:17:44.493Z,7.98
2018-09-13T23:20:13.425Z,7.93
2018-09-13T23:22:42.147Z,7.87
2018-09-13T23:25:10.919Z,7.86
2018-09-13T23:27:39.950Z,7.85
2018-09-13T23:30:08.924Z,7.85
2018-09-13T23:32:37.632Z,7.84
2018-09-13T23:35:06.533Z,7.81
2018-09-13T23:37:35.243Z,7.82
2018-09-13T23:40:04.165Z,7.80
2018-09-13T23:42:32.938Z,7.78
2018-09-13T23:45:01.628Z,7.76
2018-09-13T23:47:31.052Z,7.73
2018-09-13T23:49:59.709Z,7.69
2018-09-13T23:52:28.857Z,7.64
2018-09-13T23:54:58.271Z,7.62
2018-09-13T23:57:27.032Z,7.59
2018-09-13T23:59:55.763Z,7.58
